sensor_id;sensor_type;location;lat;lon;timestamp;P1;durP1;ratioP1;P2;durP2;ratioP2
29774;SDS011;16676;51.202;6.774;2022-09-09T00:01:43;1.13;;;0.35;;
29774;SDS011;16676;51.202;6.774;2022-09-09T00:05:51;1.40;;;0.40;;
29774;SDS011;16676;51.202;6.774;2022-09-09T00:10:03;2.00;;;0.60;;
29774;SDS011;16676;51.202;6.774;2022-09-09T00:14:20;1.23;;;0.47;;
29774;SDS011;16676;51.202;6.774;2022-09-09T00:18:29;2.08;;;0.50;;
29774;SDS011;16676;51.202;6.774;2022-09-09T00:22:38;1.83;;;0.40;;
29774;SDS011;16676;51.202;6.774;2022-09-09T00:26:44;2.85;;;0.63;;
29774;SDS011;16676;51.202;6.774;2022-09-09T00:30:51;3.00;;;0.57;;
29774;SDS011;16676;51.202;6.774;2022-09-09T00:34:54;1.15;;;0.40;;
29774;SDS011;16676;51.202;6.774;2022-09-09T00:38:59;2.15;;;0.50;;
29774;SDS011;16676;51.202;6.774;2022-09-09T00:43:13;3.05;;;0.50;;
29774;SDS011;16676;51.202;6.774;2022-09-09T00:47:40;2.70;;;0.73;;
29774;SDS011;16676;51.202;6.774;2022-09-09T00:51:48;3.47;;;0.40;;
29774;SDS011;16676;51.202;6.774;2022-09-09T00:56:01;1.98;;;0.60;;
29774;SDS011;16676;51.202;6.774;2022-09-09T01:00:18;1.58;;;0.50;;
29774;SDS011;16676;51.202;6.774;2022-09-09T01:04:27;2.35;;;0.75;;
29774;SDS011;16676;51.202;6.774;2022-09-09T01:08:39;1.80;;;0.52;;
29774;SDS011;16676;51.202;6.774;2022-09-09T01:12:53;3.53;;;0.50;;
29774;SDS011;16676;51.202;6.774;2022-09-09T01:17:00;2.63;;;0.80;;
29774;SDS011;16676;51.202;6.774;2022-09-09T01:21:09;2.00;;;0.70;;
29774;SDS011;16676;51.202;6.774;2022-09-09T01:25:22;2.17;;;0.75;;
29774;SDS011;16676;51.202;6.774;2022-09-09T01:29:34;2.55;;;0.70;;
29774;SDS011;16676;51.202;6.774;2022-09-09T01:33:37;4.65;;;0.98;;
29774;SDS011;16676;51.202;6.774;2022-09-09T01:37:39;2.08;;;0.80;;
29774;SDS011;16676;51.202;6.774;2022-09-09T01:41:41;2.13;;;0.70;;
29774;SDS011;16676;51.202;6.774;2022-09-09T01:45:44;3.30;;;0.80;;
29774;SDS011;16676;51.202;6.774;2022-09-09T01:49:49;3.65;;;0.95;;
29774;SDS011;16676;51.202;6.774;2022-09-09T01:53:52;2.20;;;0.60;;
29774;SDS011;16676;51.202;6.774;2022-09-09T01:57:56;6.05;;;1.35;;
29774;SDS011;16676;51.202;6.774;2022-09-09T02:02:10;4.20;;;1.13;;
29774;SDS011;16676;51.202;6.774;2022-09-09T02:06:20;4.55;;;1.45;;
29774;SDS011;16676;51.202;6.774;2022-09-09T02:10:28;3.75;;;1.48;;
29774;SDS011;16676;51.202;6.774;2022-09-09T02:14:34;6.05;;;1.30;;
29774;SDS011;16676;51.202;6.774;2022-09-09T02:18:42;3.22;;;1.10;;
29774;SDS011;16676;51.202;6.774;2022-09-09T02:22:49;4.85;;;0.85;;
29774;SDS011;16676;51.202;6.774;2022-09-09T02:26:52;2.00;;;0.70;;
29774;SDS011;16676;51.202;6.774;2022-09-09T02:30:57;2.30;;;0.77;;
29774;SDS011;16676;51.202;6.774;2022-09-09T02:35:02;4.72;;;1.10;;
29774;SDS011;16676;51.202;6.774;2022-09-09T02:39:08;7.32;;;1.15;;
29774;SDS011;16676;51.202;6.774;2022-09-09T02:43:11;6.15;;;1.30;;
29774;SDS011;16676;51.202;6.774;2022-09-09T02:47:20;3.63;;;0.95;;
29774;SDS011;16676;51.202;6.774;2022-09-09T02:51:35;3.88;;;1.20;;
29774;SDS011;16676;51.202;6.774;2022-09-09T02:55:41;1.90;;;0.80;;
29774;SDS011;16676;51.202;6.774;2022-09-09T02:59:48;4.55;;;1.10;;
29774;SDS011;16676;51.202;6.774;2022-09-09T03:03:52;5.57;;;1.20;;
29774;SDS011;16676;51.202;6.774;2022-09-09T03:07:56;4.88;;;1.20;;
29774;SDS011;16676;51.202;6.774;2022-09-09T03:11:58;5.10;;;1.42;;
29774;SDS011;16676;51.202;6.774;2022-09-09T03:16:00;2.75;;;1.20;;
29774;SDS011;16676;51.202;6.774;2022-09-09T03:20:04;8.75;;;1.42;;
29774;SDS011;16676;51.202;6.774;2022-09-09T03:24:08;5.07;;;1.15;;
29774;SDS011;16676;51.202;6.774;2022-09-09T03:28:10;3.17;;;1.33;;
29774;SDS011;16676;51.202;6.774;2022-09-09T03:32:12;3.83;;;1.08;;
29774;SDS011;16676;51.202;6.774;2022-09-09T03:36:17;6.03;;;1.20;;
29774;SDS011;16676;51.202;6.774;2022-09-09T03:40:40;6.63;;;1.42;;
29774;SDS011;16676;51.202;6.774;2022-09-09T03:45:10;2.33;;;1.08;;
29774;SDS011;16676;51.202;6.774;2022-09-09T03:49:32;4.05;;;1.20;;
29774;SDS011;16676;51.202;6.774;2022-09-09T03:53:53;4.82;;;1.20;;
29774;SDS011;16676;51.202;6.774;2022-09-09T03:57:58;3.15;;;1.10;;
29774;SDS011;16676;51.202;6.774;2022-09-09T04:02:00;6.63;;;1.67;;
29774;SDS011;16676;51.202;6.774;2022-09-09T04:06:03;6.70;;;1.13;;
29774;SDS011;16676;51.202;6.774;2022-09-09T04:10:07;4.75;;;1.15;;
29774;SDS011;16676;51.202;6.774;2022-09-09T04:14:11;6.93;;;1.48;;
29774;SDS011;16676;51.202;6.774;2022-09-09T04:18:13;6.97;;;2.10;;
29774;SDS011;16676;51.202;6.774;2022-09-09T04:22:15;6.07;;;1.77;;
29774;SDS011;16676;51.202;6.774;2022-09-09T04:26:17;6.70;;;1.80;;
29774;SDS011;16676;51.202;6.774;2022-09-09T04:30:21;3.97;;;1.25;;
29774;SDS011;16676;51.202;6.774;2022-09-09T04:34:24;6.80;;;1.60;;
29774;SDS011;16676;51.202;6.774;2022-09-09T04:38:26;8.43;;;2.25;;
29774;SDS011;16676;51.202;6.774;2022-09-09T04:42:27;8.32;;;2.55;;
29774;SDS011;16676;51.202;6.774;2022-09-09T04:46:31;10.15;;;2.17;;
29774;SDS011;16676;51.202;6.774;2022-09-09T04:50:34;7.97;;;2.17;;
29774;SDS011;16676;51.202;6.774;2022-09-09T04:54:36;7.88;;;2.80;;
29774;SDS011;16676;51.202;6.774;2022-09-09T04:58:39;7.60;;;2.47;;
29774;SDS011;16676;51.202;6.774;2022-09-09T05:02:44;7.25;;;2.13;;
29774;SDS011;16676;51.202;6.774;2022-09-09T05:06:47;8.90;;;2.30;;
29774;SDS011;16676;51.202;6.774;2022-09-09T05:10:49;6.15;;;2.10;;
29774;SDS011;16676;51.202;6.774;2022-09-09T05:14:51;9.48;;;2.47;;
29774;SDS011;16676;51.202;6.774;2022-09-09T05:18:54;7.10;;;2.30;;
29774;SDS011;16676;51.202;6.774;2022-09-09T05:22:56;7.90;;;1.92;;
29774;SDS011;16676;51.202;6.774;2022-09-09T05:26:58;9.73;;;2.65;;
29774;SDS011;16676;51.202;6.774;2022-09-09T05:31:03;8.07;;;1.80;;
29774;SDS011;16676;51.202;6.774;2022-09-09T05:35:09;6.70;;;1.35;;
29774;SDS011;16676;51.202;6.774;2022-09-09T05:39:11;5.97;;;1.90;;
29774;SDS011;16676;51.202;6.774;2022-09-09T05:43:13;12.95;;;2.28;;
29774;SDS011;16676;51.202;6.774;2022-09-09T05:47:15;8.05;;;1.67;;
29774;SDS011;16676;51.202;6.774;2022-09-09T05:51:19;6.38;;;1.60;;
29774;SDS011;16676;51.202;6.774;2022-09-09T05:55:22;6.32;;;1.50;;
29774;SDS011;16676;51.202;6.774;2022-09-09T05:59:25;7.00;;;1.58;;
29774;SDS011;16676;51.202;6.774;2022-09-09T06:03:28;5.30;;;1.10;;
29774;SDS011;16676;51.202;6.774;2022-09-09T06:07:32;5.40;;;1.25;;
29774;SDS011;16676;51.202;6.774;2022-09-09T06:11:34;5.15;;;1.38;;
29774;SDS011;16676;51.202;6.774;2022-09-09T06:15:36;9.40;;;1.38;;
29774;SDS011;16676;51.202;6.774;2022-09-09T06:19:38;7.95;;;1.67;;
29774;SDS011;16676;51.202;6.774;2022-09-09T06:23:42;6.25;;;1.50;;
29774;SDS011;16676;51.202;6.774;2022-09-09T06:27:48;6.50;;;1.10;;
29774;SDS011;16676;51.202;6.774;2022-09-09T06:31:51;5.65;;;1.52;;
29774;SDS011;16676;51.202;6.774;2022-09-09T06:35:53;7.15;;;1.55;;
29774;SDS011;16676;51.202;6.774;2022-09-09T06:39:58;7.22;;;1.42;;
29774;SDS011;16676;51.202;6.774;2022-09-09T06:44:00;7.88;;;1.70;;
29774;SDS011;16676;51.202;6.774;2022-09-09T06:48:03;5.32;;;1.33;;
29774;SDS011;16676;51.202;6.774;2022-09-09T06:52:05;3.63;;;1.13;;
29774;SDS011;16676;51.202;6.774;2022-09-09T06:56:21;5.95;;;1.00;;
29774;SDS011;16676;51.202;6.774;2022-09-09T07:00:24;6.50;;;1.33;;
29774;SDS011;16676;51.202;6.774;2022-09-09T07:04:26;7.97;;;1.30;;
29774;SDS011;16676;51.202;6.774;2022-09-09T07:08:28;4.28;;;1.38;;
29774;SDS011;16676;51.202;6.774;2022-09-09T07:12:32;4.90;;;1.35;;
29774;SDS011;16676;51.202;6.774;2022-09-09T07:16:34;9.30;;;1.48;;
29774;SDS011;16676;51.202;6.774;2022-09-09T07:20:37;5.85;;;1.10;;
29774;SDS011;16676;51.202;6.774;2022-09-09T07:24:39;2.92;;;0.80;;
29774;SDS011;16676;51.202;6.774;2022-09-09T07:28:43;6.05;;;1.52;;
29774;SDS011;16676;51.202;6.774;2022-09-09T07:32:44;5.40;;;1.30;;
29774;SDS011;16676;51.202;6.774;2022-09-09T07:36:46;8.32;;;1.38;;
29774;SDS011;16676;51.202;6.774;2022-09-09T07:40:49;6.82;;;1.35;;
29774;SDS011;16676;51.202;6.774;2022-09-09T07:44:52;6.60;;;1.30;;
29774;SDS011;16676;51.202;6.774;2022-09-09T07:48:55;4.97;;;1.20;;
29774;SDS011;16676;51.202;6.774;2022-09-09T07:52:58;6.18;;;1.40;;
29774;SDS011;16676;51.202;6.774;2022-09-09T07:57:00;6.13;;;1.30;;
29774;SDS011;16676;51.202;6.774;2022-09-09T08:01:09;3.95;;;1.35;;
29774;SDS011;16676;51.202;6.774;2022-09-09T08:05:13;5.20;;;1.05;;
29774;SDS011;16676;51.202;6.774;2022-09-09T08:09:16;5.63;;;1.35;;
29774;SDS011;16676;51.202;6.774;2022-09-09T08:13:19;4.60;;;0.98;;
29774;SDS011;16676;51.202;6.774;2022-09-09T08:17:22;3.28;;;1.05;;
29774;SDS011;16676;51.202;6.774;2022-09-09T08:21:26;5.80;;;1.45;;
29774;SDS011;16676;51.202;6.774;2022-09-09T08:25:29;4.22;;;1.27;;
29774;SDS011;16676;51.202;6.774;2022-09-09T08:29:31;8.98;;;1.67;;
29774;SDS011;16676;51.202;6.774;2022-09-09T08:33:35;6.50;;;1.20;;
29774;SDS011;16676;51.202;6.774;2022-09-09T08:37:38;3.90;;;0.95;;
29774;SDS011;16676;51.202;6.774;2022-09-09T08:41:53;7.38;;;1.20;;
29774;SDS011;16676;51.202;6.774;2022-09-09T08:46:13;5.38;;;0.98;;
29774;SDS011;16676;51.202;6.774;2022-09-09T08:50:23;3.70;;;0.80;;
29774;SDS011;16676;51.202;6.774;2022-09-09T08:54:29;3.92;;;1.10;;
29774;SDS011;16676;51.202;6.774;2022-09-09T08:58:35;5.30;;;1.10;;
29774;SDS011;16676;51.202;6.774;2022-09-09T09:02:52;7.78;;;1.40;;
29774;SDS011;16676;51.202;6.774;2022-09-09T09:07:03;3.22;;;0.95;;
29774;SDS011;16676;51.202;6.774;2022-09-09T09:11:13;6.13;;;1.33;;
29774;SDS011;16676;51.202;6.774;2022-09-09T09:15:18;6.47;;;1.08;;
29774;SDS011;16676;51.202;6.774;2022-09-09T09:19:22;4.37;;;1.03;;
29774;SDS011;16676;51.202;6.774;2022-09-09T09:23:29;7.32;;;1.60;;
29774;SDS011;16676;51.202;6.774;2022-09-09T09:27:39;5.20;;;1.40;;
29774;SDS011;16676;51.202;6.774;2022-09-09T09:31:45;4.22;;;1.13;;
29774;SDS011;16676;51.202;6.774;2022-09-09T09:35:52;5.82;;;1.10;;
29774;SDS011;16676;51.202;6.774;2022-09-09T09:40:06;5.22;;;1.10;;
29774;SDS011;16676;51.202;6.774;2022-09-09T09:44:21;2.97;;;0.88;;
29774;SDS011;16676;51.202;6.774;2022-09-09T09:48:25;4.38;;;0.98;;
29774;SDS011;16676;51.202;6.774;2022-09-09T09:52:28;2.97;;;0.68;;
29774;SDS011;16676;51.202;6.774;2022-09-09T09:56:33;6.22;;;1.00;;
29774;SDS011;16676;51.202;6.774;2022-09-09T10:00:35;3.55;;;0.95;;
29774;SDS011;16676;51.202;6.774;2022-09-09T10:04:37;3.03;;;0.90;;
29774;SDS011;16676;51.202;6.774;2022-09-09T10:08:44;2.50;;;1.02;;
29774;SDS011;16676;51.202;6.774;2022-09-09T10:12:52;6.85;;;1.25;;
29774;SDS011;16676;51.202;6.774;2022-09-09T10:17:05;5.00;;;1.55;;
29774;SDS011;16676;51.202;6.774;2022-09-09T10:21:20;5.13;;;0.93;;
29774;SDS011;16676;51.202;6.774;2022-09-09T10:25:33;3.47;;;0.75;;
29774;SDS011;16676;51.202;6.774;2022-09-09T10:29:54;2.90;;;0.70;;
29774;SDS011;16676;51.202;6.774;2022-09-09T10:34:12;5.07;;;1.08;;
29774;SDS011;16676;51.202;6.774;2022-09-09T10:38:25;3.53;;;0.80;;
29774;SDS011;16676;51.202;6.774;2022-09-09T10:42:34;3.97;;;0.80;;
29774;SDS011;16676;51.202;6.774;2022-09-09T10:46:39;4.97;;;1.10;;
29774;SDS011;16676;51.202;6.774;2022-09-09T10:50:53;2.47;;;0.60;;
29774;SDS011;16676;51.202;6.774;2022-09-09T10:55:02;3.10;;;0.88;;
29774;SDS011;16676;51.202;6.774;2022-09-09T10:59:12;2.70;;;0.82;;
29774;SDS011;16676;51.202;6.774;2022-09-09T11:03:20;1.90;;;0.50;;
29774;SDS011;16676;51.202;6.774;2022-09-09T11:07:27;3.25;;;0.88;;
29774;SDS011;16676;51.202;6.774;2022-09-09T11:11:34;2.20;;;0.60;;
29774;SDS011;16676;51.202;6.774;2022-09-09T11:15:44;1.27;;;0.63;;
29774;SDS011;16676;51.202;6.774;2022-09-09T11:19:52;1.95;;;0.50;;
29774;SDS011;16676;51.202;6.774;2022-09-09T11:23:55;1.80;;;0.65;;
29774;SDS011;16676;51.202;6.774;2022-09-09T11:28:05;3.92;;;0.77;;
29774;SDS011;16676;51.202;6.774;2022-09-09T11:32:36;3.28;;;0.80;;
29774;SDS011;16676;51.202;6.774;2022-09-09T11:41:43;2.90;;;0.70;;
29774;SDS011;16676;51.202;6.774;2022-09-09T11:45:50;2.92;;;0.63;;
29774;SDS011;16676;51.202;6.774;2022-09-09T11:50:06;5.00;;;0.43;;
29774;SDS011;16676;51.202;6.774;2022-09-09T11:54:25;2.60;;;0.88;;
29774;SDS011;16676;51.202;6.774;2022-09-09T11:58:33;2.30;;;0.57;;
29774;SDS011;16676;51.202;6.774;2022-09-09T12:02:47;1.42;;;0.50;;
29774;SDS011;16676;51.202;6.774;2022-09-09T12:06:51;3.38;;;0.60;;
29774;SDS011;16676;51.202;6.774;2022-09-09T12:10:56;2.50;;;0.77;;
29774;SDS011;16676;51.202;6.774;2022-09-09T12:15:03;2.67;;;0.60;;
29774;SDS011;16676;51.202;6.774;2022-09-09T12:19:21;5.35;;;0.95;;
29774;SDS011;16676;51.202;6.774;2022-09-09T12:23:30;2.53;;;0.80;;
29774;SDS011;16676;51.202;6.774;2022-09-09T12:27:40;3.70;;;0.80;;
29774;SDS011;16676;51.202;6.774;2022-09-09T12:31:54;4.43;;;1.13;;
29774;SDS011;16676;51.202;6.774;2022-09-09T12:36:01;3.00;;;0.68;;
29774;SDS011;16676;51.202;6.774;2022-09-09T12:40:18;3.33;;;0.70;;
29774;SDS011;16676;51.202;6.774;2022-09-09T12:44:21;2.97;;;0.80;;
29774;SDS011;16676;51.202;6.774;2022-09-09T12:48:27;5.55;;;1.00;;
29774;SDS011;16676;51.202;6.774;2022-09-09T12:52:32;5.15;;;0.77;;
29774;SDS011;16676;51.202;6.774;2022-09-09T12:56:37;2.75;;;0.70;;
29774;SDS011;16676;51.202;6.774;2022-09-09T13:00:48;3.65;;;0.60;;
29774;SDS011;16676;51.202;6.774;2022-09-09T13:04:53;4.47;;;0.80;;
29774;SDS011;16676;51.202;6.774;2022-09-09T13:08:56;3.85;;;0.80;;
29774;SDS011;16676;51.202;6.774;2022-09-09T13:13:00;4.03;;;0.73;;
29774;SDS011;16676;51.202;6.774;2022-09-09T13:17:04;5.65;;;0.70;;
29774;SDS011;16676;51.202;6.774;2022-09-09T13:21:09;4.70;;;1.10;;
29774;SDS011;16676;51.202;6.774;2022-09-09T13:25:18;3.67;;;0.63;;
29774;SDS011;16676;51.202;6.774;2022-09-09T13:29:22;6.20;;;0.82;;
29774;SDS011;16676;51.202;6.774;2022-09-09T13:33:28;5.15;;;0.75;;
29774;SDS011;16676;51.202;6.774;2022-09-09T13:37:35;3.95;;;0.82;;
29774;SDS011;16676;51.202;6.774;2022-09-09T13:41:41;3.10;;;0.70;;
29774;SDS011;16676;51.202;6.774;2022-09-09T13:45:51;2.42;;;0.70;;
29774;SDS011;16676;51.202;6.774;2022-09-09T13:49:56;3.60;;;0.80;;
29774;SDS011;16676;51.202;6.774;2022-09-09T13:54:00;6.88;;;0.70;;
29774;SDS011;16676;51.202;6.774;2022-09-09T13:58:03;2.40;;;0.52;;
29774;SDS011;16676;51.202;6.774;2022-09-09T14:02:06;2.33;;;0.65;;
29774;SDS011;16676;51.202;6.774;2022-09-09T14:06:08;2.17;;;0.55;;
29774;SDS011;16676;51.202;6.774;2022-09-09T14:10:12;4.43;;;0.75;;
29774;SDS011;16676;51.202;6.774;2022-09-09T14:14:14;6.53;;;0.73;;
29774;SDS011;16676;51.202;6.774;2022-09-09T14:18:16;3.85;;;0.85;;
29774;SDS011;16676;51.202;6.774;2022-09-09T14:22:18;3.45;;;0.40;;
29774;SDS011;16676;51.202;6.774;2022-09-09T14:26:22;1.80;;;0.40;;
29774;SDS011;16676;51.202;6.774;2022-09-09T14:30:24;1.70;;;0.50;;
29774;SDS011;16676;51.202;6.774;2022-09-09T14:34:26;3.25;;;0.80;;
29774;SDS011;16676;51.202;6.774;2022-09-09T14:38:28;3.10;;;0.70;;
29774;SDS011;16676;51.202;6.774;2022-09-09T14:42:32;2.08;;;0.65;;
29774;SDS011;16676;51.202;6.774;2022-09-09T14:46:34;1.08;;;0.28;;
29774;SDS011;16676;51.202;6.774;2022-09-09T14:50:36;3.25;;;0.60;;
29774;SDS011;16676;51.202;6.774;2022-09-09T14:54:40;2.58;;;0.73;;
29774;SDS011;16676;51.202;6.774;2022-09-09T14:58:43;5.82;;;0.95;;
29774;SDS011;16676;51.202;6.774;2022-09-09T15:02:46;2.65;;;0.60;;
29774;SDS011;16676;51.202;6.774;2022-09-09T15:06:48;3.15;;;0.40;;
29774;SDS011;16676;51.202;6.774;2022-09-09T15:10:58;2.63;;;0.50;;
29774;SDS011;16676;51.202;6.774;2022-09-09T15:15:03;1.85;;;0.60;;
29774;SDS011;16676;51.202;6.774;2022-09-09T15:19:05;0.88;;;0.40;;
29774;SDS011;16676;51.202;6.774;2022-09-09T15:23:09;1.13;;;0.40;;
29774;SDS011;16676;51.202;6.774;2022-09-09T15:27:11;2.67;;;0.63;;
29774;SDS011;16676;51.202;6.774;2022-09-09T15:31:16;1.92;;;0.32;;
29774;SDS011;16676;51.202;6.774;2022-09-09T15:35:19;1.50;;;0.40;;
29774;SDS011;16676;51.202;6.774;2022-09-09T15:39:21;2.90;;;0.50;;
29774;SDS011;16676;51.202;6.774;2022-09-09T15:43:23;1.00;;;0.40;;
29774;SDS011;16676;51.202;6.774;2022-09-09T15:47:26;1.55;;;0.52;;
29774;SDS011;16676;51.202;6.774;2022-09-09T15:51:28;2.88;;;0.47;;
29774;SDS011;16676;51.202;6.774;2022-09-09T15:55:31;1.95;;;0.75;;
29774;SDS011;16676;51.202;6.774;2022-09-09T15:59:33;2.45;;;0.63;;
29774;SDS011;16676;51.202;6.774;2022-09-09T16:03:37;5.15;;;0.90;;
29774;SDS011;16676;51.202;6.774;2022-09-09T16:07:40;5.25;;;1.02;;
29774;SDS011;16676;51.202;6.774;2022-09-09T16:11:42;3.38;;;0.70;;
29774;SDS011;16676;51.202;6.774;2022-09-09T16:15:44;5.38;;;1.27;;
29774;SDS011;16676;51.202;6.774;2022-09-09T16:19:47;1.77;;;0.75;;
29774;SDS011;16676;51.202;6.774;2022-09-09T16:23:50;3.35;;;1.10;;
29774;SDS011;16676;51.202;6.774;2022-09-09T16:27:53;3.72;;;1.27;;
29774;SDS011;16676;51.202;6.774;2022-09-09T16:31:55;3.85;;;1.20;;
29774;SDS011;16676;51.202;6.774;2022-09-09T16:35:58;3.03;;;1.25;;
29774;SDS011;16676;51.202;6.774;2022-09-09T16:40:07;3.90;;;1.27;;
29774;SDS011;16676;51.202;6.774;2022-09-09T16:44:10;4.43;;;1.17;;
29774;SDS011;16676;51.202;6.774;2022-09-09T16:48:13;5.53;;;1.58;;
29774;SDS011;16676;51.202;6.774;2022-09-09T16:52:16;3.60;;;1.20;;
29774;SDS011;16676;51.202;6.774;2022-09-09T16:56:19;3.92;;;1.42;;
29774;SDS011;16676;51.202;6.774;2022-09-09T17:00:23;5.18;;;1.45;;
29774;SDS011;16676;51.202;6.774;2022-09-09T17:04:27;3.28;;;1.20;;
29774;SDS011;16676;51.202;6.774;2022-09-09T17:08:32;7.55;;;1.65;;
29774;SDS011;16676;51.202;6.774;2022-09-09T17:12:34;3.42;;;1.33;;
29774;SDS011;16676;51.202;6.774;2022-09-09T17:16:37;7.13;;;1.50;;
29774;SDS011;16676;51.202;6.774;2022-09-09T17:20:40;3.95;;;1.50;;
29774;SDS011;16676;51.202;6.774;2022-09-09T17:24:43;5.30;;;1.80;;
29774;SDS011;16676;51.202;6.774;2022-09-09T17:28:47;6.82;;;1.85;;
29774;SDS011;16676;51.202;6.774;2022-09-09T17:32:49;7.47;;;1.80;;
29774;SDS011;16676;51.202;6.774;2022-09-09T17:36:51;11.13;;;3.60;;
29774;SDS011;16676;51.202;6.774;2022-09-09T17:41:01;12.70;;;4.18;;
29774;SDS011;16676;51.202;6.774;2022-09-09T17:45:05;8.60;;;3.13;;
29774;SDS011;16676;51.202;6.774;2022-09-09T17:49:08;9.55;;;2.20;;
29774;SDS011;16676;51.202;6.774;2022-09-09T17:53:12;7.90;;;1.98;;
29774;SDS011;16676;51.202;6.774;2022-09-09T17:57:15;6.95;;;1.40;;
29774;SDS011;16676;51.202;6.774;2022-09-09T18:01:20;4.75;;;1.48;;
29774;SDS011;16676;51.202;6.774;2022-09-09T18:05:24;5.18;;;1.58;;
29774;SDS011;16676;51.202;6.774;2022-09-09T18:09:26;4.00;;;1.73;;
29774;SDS011;16676;51.202;6.774;2022-09-09T18:13:30;4.03;;;1.65;;
29774;SDS011;16676;51.202;6.774;2022-09-09T18:17:32;4.63;;;2.30;;
29774;SDS011;16676;51.202;6.774;2022-09-09T18:21:34;6.68;;;2.58;;
29774;SDS011;16676;51.202;6.774;2022-09-09T18:25:37;6.15;;;2.63;;
29774;SDS011;16676;51.202;6.774;2022-09-09T18:29:41;6.22;;;2.25;;
29774;SDS011;16676;51.202;6.774;2022-09-09T18:33:43;3.75;;;1.80;;
29774;SDS011;16676;51.202;6.774;2022-09-09T18:37:46;6.10;;;1.70;;
29774;SDS011;16676;51.202;6.774;2022-09-09T18:41:49;2.83;;;1.05;;
29774;SDS011;16676;51.202;6.774;2022-09-09T18:45:54;6.47;;;1.20;;
29774;SDS011;16676;51.202;6.774;2022-09-09T18:49:56;2.88;;;0.70;;
29774;SDS011;16676;51.202;6.774;2022-09-09T18:53:59;2.20;;;0.80;;
29774;SDS011;16676;51.202;6.774;2022-09-09T18:58:02;3.30;;;0.90;;
29774;SDS011;16676;51.202;6.774;2022-09-09T19:02:05;3.72;;;0.73;;
29774;SDS011;16676;51.202;6.774;2022-09-09T19:06:08;4.00;;;0.75;;
29774;SDS011;16676;51.202;6.774;2022-09-09T19:10:12;3.05;;;0.90;;
29774;SDS011;16676;51.202;6.774;2022-09-09T19:14:15;2.22;;;0.93;;
29774;SDS011;16676;51.202;6.774;2022-09-09T19:18:19;5.13;;;0.93;;
29774;SDS011;16676;51.202;6.774;2022-09-09T19:22:22;4.07;;;1.00;;
29774;SDS011;16676;51.202;6.774;2022-09-09T19:26:25;2.22;;;0.80;;
29774;SDS011;16676;51.202;6.774;2022-09-09T19:30:28;3.65;;;1.05;;
29774;SDS011;16676;51.202;6.774;2022-09-09T19:34:32;2.25;;;1.25;;
29774;SDS011;16676;51.202;6.774;2022-09-09T19:38:35;5.20;;;1.10;;
29774;SDS011;16676;51.202;6.774;2022-09-09T19:42:37;3.10;;;0.70;;
29774;SDS011;16676;51.202;6.774;2022-09-09T19:46:40;3.53;;;1.00;;
29774;SDS011;16676;51.202;6.774;2022-09-09T19:50:45;5.78;;;0.82;;
29774;SDS011;16676;51.202;6.774;2022-09-09T19:54:47;4.43;;;0.93;;
29774;SDS011;16676;51.202;6.774;2022-09-09T19:58:49;4.65;;;1.05;;
29774;SDS011;16676;51.202;6.774;2022-09-09T20:02:52;1.90;;;0.73;;
29774;SDS011;16676;51.202;6.774;2022-09-09T20:06:55;3.08;;;0.82;;
29774;SDS011;16676;51.202;6.774;2022-09-09T20:10:57;4.95;;;0.70;;
29774;SDS011;16676;51.202;6.774;2022-09-09T20:15:00;4.90;;;0.88;;
29774;SDS011;16676;51.202;6.774;2022-09-09T20:19:03;2.45;;;0.85;;
29774;SDS011;16676;51.202;6.774;2022-09-09T20:23:07;4.47;;;0.77;;
29774;SDS011;16676;51.202;6.774;2022-09-09T20:27:09;2.53;;;0.80;;
29774;SDS011;16676;51.202;6.774;2022-09-09T20:31:13;3.47;;;1.08;;
29774;SDS011;16676;51.202;6.774;2022-09-09T20:35:16;3.00;;;0.85;;
29774;SDS011;16676;51.202;6.774;2022-09-09T20:39:19;4.00;;;1.02;;
29774;SDS011;16676;51.202;6.774;2022-09-09T20:43:21;3.63;;;0.80;;
29774;SDS011;16676;51.202;6.774;2022-09-09T20:47:23;3.47;;;0.90;;
29774;SDS011;16676;51.202;6.774;2022-09-09T20:51:26;3.25;;;0.90;;
29774;SDS011;16676;51.202;6.774;2022-09-09T20:55:32;6.88;;;1.05;;
29774;SDS011;16676;51.202;6.774;2022-09-09T20:59:34;3.88;;;1.15;;
29774;SDS011;16676;51.202;6.774;2022-09-09T21:03:36;3.08;;;0.90;;
29774;SDS011;16676;51.202;6.774;2022-09-09T21:07:38;2.67;;;1.10;;
29774;SDS011;16676;51.202;6.774;2022-09-09T21:11:41;3.22;;;0.70;;
29774;SDS011;16676;51.202;6.774;2022-09-09T21:15:43;3.17;;;0.98;;
29774;SDS011;16676;51.202;6.774;2022-09-09T21:19:46;4.28;;;1.08;;
29774;SDS011;16676;51.202;6.774;2022-09-09T21:23:48;7.57;;;1.08;;
29774;SDS011;16676;51.202;6.774;2022-09-09T21:27:52;5.82;;;1.00;;
29774;SDS011;16676;51.202;6.774;2022-09-09T21:31:54;3.92;;;1.02;;
29774;SDS011;16676;51.202;6.774;2022-09-09T21:36:00;4.07;;;0.95;;
29774;SDS011;16676;51.202;6.774;2022-09-09T21:44:07;4.43;;;1.15;;
29774;SDS011;16676;51.202;6.774;2022-09-09T21:48:14;4.10;;;1.05;;
29774;SDS011;16676;51.202;6.774;2022-09-09T21:52:17;4.07;;;1.00;;
29774;SDS011;16676;51.202;6.774;2022-09-09T21:56:19;3.78;;;1.10;;
29774;SDS011;16676;51.202;6.774;2022-09-09T22:00:23;3.58;;;0.90;;
29774;SDS011;16676;51.202;6.774;2022-09-09T22:04:25;3.05;;;0.85;;
29774;SDS011;16676;51.202;6.774;2022-09-09T22:08:28;2.65;;;1.10;;
29774;SDS011;16676;51.202;6.774;2022-09-09T22:12:30;3.00;;;1.00;;
29774;SDS011;16676;51.202;6.774;2022-09-09T22:16:33;3.95;;;0.98;;
29774;SDS011;16676;51.202;6.774;2022-09-09T22:20:38;4.32;;;1.00;;
29774;SDS011;16676;51.202;6.774;2022-09-09T22:24:41;5.10;;;1.25;;
29774;SDS011;16676;51.202;6.774;2022-09-09T22:28:43;4.38;;;1.10;;
29774;SDS011;16676;51.202;6.774;2022-09-09T22:32:47;5.30;;;1.23;;
29774;SDS011;16676;51.202;6.774;2022-09-09T22:36:50;7.03;;;1.45;;
29774;SDS011;16676;51.202;6.774;2022-09-09T22:40:52;2.38;;;1.00;;
29774;SDS011;16676;51.202;6.774;2022-09-09T22:44:54;3.65;;;0.90;;
29774;SDS011;16676;51.202;6.774;2022-09-09T22:48:57;3.63;;;1.08;;
29774;SDS011;16676;51.202;6.774;2022-09-09T22:53:02;2.85;;;0.93;;
29774;SDS011;16676;51.202;6.774;2022-09-09T22:57:04;6.43;;;1.38;;
29774;SDS011;16676;51.202;6.774;2022-09-09T23:01:10;2.78;;;0.98;;
29774;SDS011;16676;51.202;6.774;2022-09-09T23:05:15;3.85;;;1.05;;
29774;SDS011;16676;51.202;6.774;2022-09-09T23:09:19;4.13;;;1.13;;
29774;SDS011;16676;51.202;6.774;2022-09-09T23:13:21;2.03;;;0.85;;
29774;SDS011;16676;51.202;6.774;2022-09-09T23:17:24;4.60;;;1.10;;
29774;SDS011;16676;51.202;6.774;2022-09-09T23:21:28;2.45;;;0.73;;
29774;SDS011;16676;51.202;6.774;2022-09-09T23:25:33;3.40;;;0.88;;
29774;SDS011;16676;51.202;6.774;2022-09-09T23:29:35;3.67;;;0.50;;
29774;SDS011;16676;51.202;6.774;2022-09-09T23:33:38;2.45;;;0.90;;
29774;SDS011;16676;51.202;6.774;2022-09-09T23:37:42;2.72;;;0.60;;
29774;SDS011;16676;51.202;6.774;2022-09-09T23:41:44;2.67;;;0.80;;
29774;SDS011;16676;51.202;6.774;2022-09-09T23:45:46;5.22;;;1.30;;
29774;SDS011;16676;51.202;6.774;2022-09-09T23:49:49;2.40;;;0.70;;
29774;SDS011;16676;51.202;6.774;2022-09-09T23:53:53;2.45;;;0.77;;
29774;SDS011;16676;51.202;6.774;2022-09-09T23:57:56;3.65;;;1.00;;
